createdAt,value
2019-02-27T00:00:52.310Z,24.80
2019-02-27T00:01:52.317Z,25.80
2019-02-27T00:02:53.764Z,24.50
2019-02-27T00:03:52.348Z,25.30
2019-02-27T00:04:52.353Z,24.60
2019-02-27T00:05:52.364Z,25.90
2019-02-27T00:06:52.376Z,24.40
2019-02-27T00:07:54.859Z,25.40
2019-02-27T00:08:52.398Z,25.40
2019-02-27T00:09:52.417Z,25.60
2019-02-27T00:10:52.474Z,25.70
2019-02-27T00:11:52.434Z,25.40
2019-02-27T00:12:52.568Z,24.60
2019-02-27T00:13:52.459Z,24.10
2019-02-27T00:14:52.471Z,24.20
2019-02-27T00:15:52.483Z,24.70
2019-02-27T00:16:52.494Z,24.50
2019-02-27T00:17:52.507Z,23.80
2019-02-27T00:18:53.721Z,23.80
2019-02-27T00:19:52.535Z,23.90
2019-02-27T00:20:52.539Z,23.90
2019-02-27T00:21:52.551Z,24.70
2019-02-27T00:22:52.564Z,23.90
2019-02-27T00:23:56.713Z,24.40
2019-02-27T00:24:52.585Z,24.70
2019-02-27T00:25:52.599Z,24.60
2019-02-27T00:26:52.615Z,24.40
2019-02-27T00:27:52.623Z,24.10
2019-02-27T00:28:55.954Z,24.30
2019-02-27T00:29:52.638Z,24.40
2019-02-27T00:30:52.646Z,24.50
2019-02-27T00:31:52.659Z,23.20
2019-02-27T00:32:52.674Z,24.30
2019-02-27T00:33:52.686Z,24.40
2019-02-27T00:34:52.697Z,24.60
2019-02-27T00:35:52.706Z,25.60
2019-02-27T00:36:52.715Z,24.30
2019-02-27T00:37:52.777Z,24.30
2019-02-27T00:38:52.746Z,24.40
2019-02-27T00:39:52.754Z,24.30
2019-02-27T00:40:52.765Z,25.10
2019-02-27T00:41:52.781Z,24.50
2019-02-27T00:42:54.445Z,24.50
2019-02-27T00:43:52.801Z,24.30
2019-02-27T00:44:52.808Z,23.80
2019-02-27T00:45:52.824Z,24.80
2019-02-27T00:46:52.838Z,24.50
2019-02-27T00:47:53.772Z,24.10
2019-02-27T00:48:52.860Z,24.10
2019-02-27T00:49:52.866Z,24.20
2019-02-27T00:50:52.887Z,23.80
2019-02-27T00:51:52.891Z,25.80
2019-02-27T00:52:52.909Z,24.00
2019-02-27T00:53:52.916Z,24.40
2019-02-27T00:54:52.927Z,24.80
2019-02-27T00:55:52.939Z,24.30
2019-02-27T00:56:52.954Z,23.80
2019-02-27T00:57:54.472Z,23.90
2019-02-27T00:58:52.974Z,24.90
2019-02-27T00:59:52.987Z,24.50
2019-02-27T01:00:52.997Z,23.80
2019-02-27T01:01:53.016Z,23.70
2019-02-27T01:02:53.671Z,23.90
2019-02-27T01:03:53.039Z,23.80
2019-02-27T01:04:53.048Z,23.10
2019-02-27T01:05:53.054Z,22.70
2019-02-27T01:06:53.064Z,23.20
2019-02-27T01:07:54.204Z,24.20
2019-02-27T01:08:53.089Z,24.80
2019-02-27T01:09:53.098Z,23.90
2019-02-27T01:10:53.111Z,24.40
2019-02-27T01:11:53.127Z,23.00
2019-02-27T01:12:53.136Z,23.90
2019-02-27T01:13:53.143Z,23.40
2019-02-27T01:14:53.155Z,23.30
2019-02-27T01:15:53.167Z,23.80
2019-02-27T01:16:53.180Z,23.20
2019-02-27T01:17:54.997Z,23.60
2019-02-27T01:18:53.209Z,23.80
2019-02-27T01:19:53.220Z,23.30
2019-02-27T01:20:53.251Z,23.40
2019-02-27T01:21:53.234Z,23.50
2019-02-27T01:22:53.252Z,24.20
2019-02-27T01:23:53.265Z,23.80
2019-02-27T01:24:53.273Z,24.20
2019-02-27T01:25:56.095Z,24.30
2019-02-27T01:26:53.294Z,23.30
2019-02-27T01:27:53.305Z,23.70
2019-02-27T01:28:53.319Z,23.10
2019-02-27T01:29:53.329Z,24.70
2019-02-27T01:30:53.345Z,24.20
2019-02-27T01:31:55.022Z,25.20
2019-02-27T01:32:53.372Z,25.20
2019-02-27T01:33:53.381Z,25.90
2019-02-27T01:34:53.383Z,25.80
2019-02-27T01:35:53.404Z,25.00
2019-02-27T01:36:57.592Z,25.60
2019-02-27T01:37:53.421Z,26.20
2019-02-27T01:38:53.435Z,24.90
2019-02-27T01:39:53.442Z,25.50
2019-02-27T01:40:53.461Z,24.20
2019-02-27T01:41:55.307Z,23.90
2019-02-27T01:42:53.481Z,24.20
2019-02-27T01:43:53.489Z,25.50
2019-02-27T01:44:53.498Z,23.80
2019-02-27T01:45:54.438Z,24.70
2019-02-27T01:46:54.699Z,24.30
2019-02-27T01:47:53.536Z,24.70
2019-02-27T01:48:53.550Z,23.80
2019-02-27T01:49:53.553Z,24.00
2019-02-27T01:50:55.325Z,23.80
2019-02-27T01:51:53.586Z,24.20
2019-02-27T01:52:53.591Z,23.90
2019-02-27T01:53:53.600Z,23.80
2019-02-27T01:54:53.620Z,23.10
2019-02-27T01:55:56.173Z,23.80
2019-02-27T01:56:53.636Z,23.50
2019-02-27T01:57:53.655Z,23.50
2019-02-27T01:58:53.658Z,22.80
2019-02-27T01:59:53.668Z,23.00
2019-02-27T02:00:56.081Z,23.50
2019-02-27T02:01:53.689Z,23.80
2019-02-27T02:02:53.702Z,22.90
2019-02-27T02:03:53.723Z,22.50
2019-02-27T02:04:53.903Z,22.70
2019-02-27T02:05:53.739Z,23.30
2019-02-27T02:06:53.747Z,22.40
2019-02-27T02:07:53.761Z,23.30
2019-02-27T02:08:53.772Z,23.40
2019-02-27T02:09:55.036Z,22.50
2019-02-27T02:10:53.791Z,23.50
2019-02-27T02:11:53.805Z,23.00
2019-02-27T02:12:53.918Z,22.70
2019-02-27T02:13:53.832Z,23.70
2019-02-27T02:14:54.300Z,23.50
2019-02-27T02:15:53.851Z,23.40
2019-02-27T02:16:53.862Z,23.20
2019-02-27T02:17:53.875Z,24.10
2019-02-27T02:18:53.887Z,24.10
2019-02-27T02:19:54.702Z,23.10
2019-02-27T02:20:53.910Z,24.30
2019-02-27T02:21:53.922Z,23.60
2019-02-27T02:22:53.928Z,23.20
2019-02-27T02:23:53.950Z,23.40
2019-02-27T02:24:54.252Z,24.40
2019-02-27T02:25:53.964Z,23.20
2019-02-27T02:26:53.974Z,24.10
2019-02-27T02:27:53.986Z,23.20
2019-02-27T02:28:53.998Z,22.70
2019-02-27T02:29:54.014Z,24.40
2019-02-27T02:30:54.022Z,23.60
2019-02-27T02:31:54.031Z,23.80
2019-02-27T02:32:54.042Z,23.30
2019-02-27T02:33:54.053Z,23.70
2019-02-27T02:34:54.068Z,22.70
2019-02-27T02:35:54.077Z,22.90
2019-02-27T02:36:54.092Z,23.10
2019-02-27T02:37:54.102Z,23.70
2019-02-27T02:38:54.109Z,22.10
2019-02-27T02:39:55.238Z,23.80
2019-02-27T02:40:54.149Z,23.40
2019-02-27T02:41:54.145Z,24.50
2019-02-27T02:42:54.158Z,23.80
2019-02-27T02:43:54.165Z,22.60
2019-02-27T02:44:57.505Z,22.80
2019-02-27T02:45:54.183Z,23.50
2019-02-27T02:46:54.205Z,22.90
2019-02-27T02:47:55.871Z,23.30
2019-02-27T02:48:54.217Z,23.50
2019-02-27T02:49:54.233Z,22.90
2019-02-27T02:50:55.046Z,23.40
2019-02-27T02:51:54.250Z,23.10
2019-02-27T02:52:54.262Z,22.80
2019-02-27T02:54:00.394Z,23.40
2019-02-27T02:54:54.293Z,23.60
2019-02-27T02:55:54.298Z,22.80
2019-02-27T02:57:00.210Z,23.80
2019-02-27T02:57:54.321Z,23.60
2019-02-27T02:58:54.339Z,22.40
2019-02-27T02:59:59.405Z,24.00
2019-02-27T03:00:54.351Z,23.30
2019-02-27T03:01:54.364Z,23.60
2019-02-27T03:02:57.494Z,24.40
2019-02-27T03:03:54.384Z,23.30
2019-02-27T03:04:54.403Z,22.40
2019-02-27T03:05:58.588Z,23.50
2019-02-27T03:06:54.425Z,24.10
2019-02-27T03:07:54.432Z,22.70
2019-02-27T03:08:55.318Z,23.60
2019-02-27T03:09:54.458Z,23.70
2019-02-27T03:10:54.482Z,23.20
2019-02-27T03:11:55.629Z,24.40
2019-02-27T03:12:54.489Z,23.70
2019-02-27T03:13:54.497Z,23.10
2019-02-27T03:14:54.653Z,23.30
2019-02-27T03:15:54.519Z,24.20
2019-02-27T03:16:54.531Z,22.40
2019-02-27T03:17:55.091Z,23.70
2019-02-27T03:18:54.554Z,22.90
2019-02-27T03:19:54.561Z,22.70
2019-02-27T03:20:54.573Z,23.30
2019-02-27T03:21:54.587Z,22.90
2019-02-27T03:22:54.598Z,23.60
2019-02-27T03:23:54.608Z,23.50
2019-02-27T03:24:54.617Z,24.30
2019-02-27T03:25:54.626Z,24.20
2019-02-27T03:26:54.640Z,24.70
2019-02-27T03:27:54.655Z,25.10
2019-02-27T03:28:54.659Z,25.00
2019-02-27T03:29:54.674Z,24.50
2019-02-27T03:30:54.687Z,24.50
2019-02-27T03:32:00.038Z,23.30
2019-02-27T03:32:54.739Z,25.30
2019-02-27T03:34:05.387Z,24.00
2019-02-27T03:34:54.727Z,23.80
2019-02-27T03:35:54.737Z,24.30
2019-02-27T03:36:54.752Z,23.90
2019-02-27T03:37:54.764Z,23.40
2019-02-27T03:38:55.889Z,23.10
2019-02-27T03:39:54.784Z,24.50
2019-02-27T03:40:54.797Z,23.50
2019-02-27T03:41:58.499Z,23.70
2019-02-27T03:42:54.819Z,22.60
2019-02-27T03:43:54.826Z,24.20
2019-02-27T03:44:56.172Z,23.50
2019-02-27T03:45:54.848Z,24.20
2019-02-27T03:46:54.947Z,23.40
2019-02-27T03:47:54.872Z,23.30
2019-02-27T03:48:54.886Z,23.40
2019-02-27T03:49:54.890Z,22.90
2019-02-27T03:50:54.900Z,22.90
2019-02-27T03:51:59.858Z,23.60
2019-02-27T03:52:54.926Z,22.90
2019-02-27T03:53:54.941Z,22.50
2019-02-27T03:54:58.052Z,22.00
2019-02-27T03:55:54.960Z,23.00
2019-02-27T03:56:54.974Z,21.90
2019-02-27T03:57:56.028Z,23.20
2019-02-27T03:58:54.991Z,22.50
2019-02-27T03:59:55.001Z,22.90
2019-02-27T04:00:55.015Z,23.10
2019-02-27T04:01:55.024Z,23.10
2019-02-27T04:02:55.032Z,23.30
2019-02-27T04:03:55.404Z,23.10
2019-02-27T04:04:55.069Z,22.60
2019-02-27T04:05:55.062Z,22.80
2019-02-27T04:06:56.473Z,21.80
2019-02-27T04:07:55.093Z,23.00
2019-02-27T04:08:55.099Z,23.30
2019-02-27T04:09:56.371Z,22.70
2019-02-27T04:10:55.116Z,21.90
2019-02-27T04:11:55.126Z,23.40
2019-02-27T04:12:55.139Z,23.20
2019-02-27T04:13:55.153Z,23.60
2019-02-27T04:14:55.162Z,22.50
2019-02-27T04:15:55.187Z,23.30
2019-02-27T04:16:55.187Z,24.50
2019-02-27T04:17:55.194Z,23.00
2019-02-27T04:18:55.203Z,24.10
2019-02-27T04:19:55.534Z,23.70
2019-02-27T04:20:55.231Z,22.60
2019-02-27T04:22:00.451Z,23.60
2019-02-27T04:22:55.247Z,23.50
2019-02-27T04:23:55.261Z,23.50
2019-02-27T04:24:56.849Z,23.80
2019-02-27T04:25:55.280Z,23.20
2019-02-27T04:26:55.289Z,22.50
2019-02-27T04:27:56.257Z,23.50
2019-02-27T04:28:55.315Z,24.40
2019-02-27T04:29:55.322Z,22.70
2019-02-27T04:30:55.331Z,23.20
2019-02-27T04:31:55.372Z,24.20
2019-02-27T04:32:55.358Z,23.40
2019-02-27T04:33:59.830Z,22.70
2019-02-27T04:34:55.404Z,22.60
2019-02-27T04:35:55.386Z,23.30
2019-02-27T04:36:55.405Z,23.70
2019-02-27T04:37:55.409Z,23.40
2019-02-27T04:38:55.420Z,24.60
2019-02-27T04:39:55.431Z,23.70
2019-02-27T04:40:55.441Z,23.40
2019-02-27T04:41:55.452Z,23.50
2019-02-27T04:42:57.004Z,23.60
2019-02-27T04:43:55.475Z,23.50
2019-02-27T04:44:55.488Z,24.80
2019-02-27T04:45:55.494Z,23.60
2019-02-27T04:46:55.645Z,23.70
2019-02-27T04:47:55.514Z,24.80
2019-02-27T04:48:55.531Z,23.50
2019-02-27T04:49:55.540Z,23.20
2019-02-27T04:50:55.550Z,22.70
2019-02-27T04:51:55.564Z,22.30
2019-02-27T04:52:57.638Z,22.80
2019-02-27T04:53:55.582Z,23.90
2019-02-27T04:54:55.592Z,23.30
2019-02-27T04:55:55.604Z,23.70
2019-02-27T04:56:57.554Z,22.70
2019-02-27T04:57:55.622Z,23.60
2019-02-27T04:58:55.642Z,24.00
2019-02-27T04:59:55.640Z,24.50
2019-02-27T05:00:59.158Z,24.00
2019-02-27T05:01:55.665Z,24.60
2019-02-27T05:02:55.687Z,22.70
2019-02-27T05:03:55.687Z,23.70
2019-02-27T05:04:55.705Z,23.70
2019-02-27T05:05:55.709Z,23.10
2019-02-27T05:06:55.719Z,23.50
2019-02-27T05:07:55.730Z,23.70
2019-02-27T05:08:59.809Z,23.70
2019-02-27T05:09:55.750Z,23.50
2019-02-27T05:10:55.763Z,23.40
2019-02-27T05:11:55.768Z,23.50
2019-02-27T05:12:55.791Z,24.00
2019-02-27T05:13:55.791Z,22.80
2019-02-27T05:14:55.804Z,22.90
2019-02-27T05:15:55.814Z,23.30
2019-02-27T05:16:55.826Z,23.80
2019-02-27T05:17:56.300Z,23.60
2019-02-27T05:18:55.842Z,24.10
2019-02-27T05:19:55.855Z,23.10
2019-02-27T05:20:55.869Z,24.10
2019-02-27T05:21:55.879Z,24.80
2019-02-27T05:23:00.097Z,23.20
2019-02-27T05:23:55.926Z,24.20
2019-02-27T05:24:55.915Z,23.40
2019-02-27T05:25:56.376Z,23.40
2019-02-27T05:26:58.128Z,24.20
2019-02-27T05:27:55.941Z,23.80
2019-02-27T05:28:55.962Z,24.20
2019-02-27T05:29:55.961Z,24.20
2019-02-27T05:30:55.982Z,23.20
2019-02-27T05:31:55.991Z,24.30
2019-02-27T05:32:55.999Z,24.40
2019-02-27T05:33:56.010Z,23.90
2019-02-27T05:34:56.019Z,23.20
2019-02-27T05:35:57.322Z,24.60
2019-02-27T05:36:56.043Z,24.70
2019-02-27T05:37:56.053Z,24.00
2019-02-27T05:38:56.060Z,24.50
2019-02-27T05:39:56.087Z,24.20
2019-02-27T05:40:59.818Z,23.70
2019-02-27T05:41:56.090Z,24.20
2019-02-27T05:42:56.105Z,23.20
2019-02-27T05:43:56.112Z,23.80
2019-02-27T05:44:56.722Z,23.70
2019-02-27T05:45:56.160Z,24.80
2019-02-27T05:46:56.152Z,23.90
2019-02-27T05:47:56.167Z,24.80
2019-02-27T05:48:56.163Z,24.70
2019-02-27T05:49:57.967Z,24.70
2019-02-27T05:50:56.416Z,23.50
2019-02-27T05:51:56.196Z,24.20
2019-02-27T05:52:56.209Z,23.40
2019-02-27T05:53:58.495Z,23.70
2019-02-27T05:54:56.488Z,24.00
2019-02-27T05:55:56.237Z,23.30
2019-02-27T05:56:56.249Z,24.30
2019-02-27T05:57:56.282Z,24.10
2019-02-27T05:58:56.841Z,24.30
2019-02-27T05:59:56.282Z,24.10
2019-02-27T06:00:56.309Z,23.80
2019-02-27T06:02:56.934Z,24.00
2019-02-27T06:03:56.743Z,23.20
2019-02-27T06:04:59.156Z,25.30
2019-02-27T06:05:56.347Z,23.70
2019-02-27T06:06:56.453Z,24.20
2019-02-27T06:07:56.367Z,24.20
2019-02-27T06:08:56.377Z,24.30
2019-02-27T06:09:56.469Z,23.20
2019-02-27T06:10:56.416Z,23.90
2019-02-27T06:11:56.639Z,23.90
2019-02-27T06:12:56.474Z,24.20
2019-02-27T06:13:56.426Z,23.40
2019-02-27T06:14:56.485Z,22.80
2019-02-27T06:15:56.454Z,23.60
2019-02-27T06:16:56.457Z,23.60
2019-02-27T06:17:56.476Z,23.90
2019-02-27T06:18:56.975Z,22.80
2019-02-27T06:19:56.500Z,23.20
2019-02-27T06:20:56.574Z,23.10
2019-02-27T06:21:56.924Z,23.00
2019-02-27T06:22:56.533Z,23.50
2019-02-27T06:23:56.542Z,22.70
2019-02-27T06:24:56.635Z,22.90
2019-02-27T06:25:59.380Z,23.40
2019-02-27T06:26:56.564Z,22.40
2019-02-27T06:27:56.576Z,23.40
2019-02-27T06:28:56.585Z,23.60
2019-02-27T06:29:57.035Z,22.90
2019-02-27T06:30:56.611Z,23.10
2019-02-27T06:31:56.622Z,22.10
2019-02-27T06:32:56.680Z,23.20
2019-02-27T06:33:56.639Z,23.50
2019-02-27T06:34:59.098Z,22.10
2019-02-27T06:35:56.663Z,22.70
2019-02-27T06:36:56.676Z,22.20
2019-02-27T06:37:56.684Z,22.20
2019-02-27T06:39:00.087Z,22.70
2019-02-27T06:39:56.712Z,22.80
2019-02-27T06:40:56.718Z,22.30
2019-02-27T06:41:56.738Z,22.50
2019-02-27T06:42:56.956Z,22.80
2019-02-27T06:43:58.926Z,22.70
2019-02-27T06:44:56.765Z,22.90
2019-02-27T06:45:56.777Z,23.50
2019-02-27T06:46:56.784Z,22.80
2019-02-27T06:47:56.786Z,23.20
2019-02-27T06:48:56.802Z,23.80
2019-02-27T06:49:56.817Z,22.70
2019-02-27T06:50:58.335Z,23.20
2019-02-27T06:51:56.833Z,22.50
2019-02-27T06:52:56.865Z,22.10
2019-02-27T06:53:56.851Z,22.30
2019-02-27T06:54:56.862Z,22.50
2019-02-27T06:55:56.905Z,22.10
2019-02-27T06:56:56.922Z,22.10
2019-02-27T06:57:56.893Z,22.10
2019-02-27T06:58:56.907Z,22.20
2019-02-27T06:59:57.490Z,22.40
2019-02-27T07:00:56.927Z,22.50
2019-02-27T07:01:56.939Z,23.50
2019-02-27T07:02:56.945Z,22.70
2019-02-27T07:03:57.046Z,21.90
2019-02-27T07:04:57.113Z,21.70
2019-02-27T07:05:56.975Z,21.70
2019-02-27T07:06:57.057Z,22.50
2019-02-27T07:07:57.001Z,21.40
2019-02-27T07:08:57.015Z,20.60
2019-02-27T07:09:57.033Z,21.50
2019-02-27T07:10:58.932Z,22.30
2019-02-27T07:11:57.052Z,21.80
2019-02-27T07:12:57.059Z,21.60
2019-02-27T07:13:57.067Z,22.80
2019-02-27T07:14:57.078Z,22.20
2019-02-27T07:15:57.151Z,22.40
2019-02-27T07:16:57.830Z,21.80
2019-02-27T07:17:57.111Z,22.70
2019-02-27T07:18:57.125Z,21.80
2019-02-27T07:19:57.127Z,22.80
2019-02-27T07:20:58.491Z,22.20
2019-02-27T07:21:57.509Z,22.00
2019-02-27T07:22:57.469Z,21.70
2019-02-27T07:23:58.539Z,21.90
2019-02-27T07:24:57.426Z,22.40
2019-02-27T07:25:57.187Z,23.60
2019-02-27T07:26:57.225Z,25.20
2019-02-27T07:27:57.224Z,23.40
2019-02-27T07:28:57.217Z,24.00
2019-02-27T07:29:57.229Z,24.00
2019-02-27T07:30:57.245Z,22.80
2019-02-27T07:31:57.302Z,23.10
2019-02-27T07:32:57.263Z,22.00
2019-02-27T07:33:57.273Z,23.00
2019-02-27T07:34:57.311Z,21.50
2019-02-27T07:35:57.305Z,22.80
2019-02-27T07:37:57.313Z,20.90
2019-02-27T07:38:58.275Z,21.00
2019-02-27T07:39:57.338Z,21.40
2019-02-27T07:40:57.412Z,22.20
2019-02-27T07:41:57.365Z,20.90
2019-02-27T07:42:57.372Z,21.60
2019-02-27T07:43:57.383Z,21.30
2019-02-27T07:44:57.398Z,23.40
2019-02-27T07:45:57.404Z,21.80
2019-02-27T07:46:58.077Z,22.80
2019-02-27T07:47:57.422Z,22.00
2019-02-27T07:48:57.445Z,22.10
2019-02-27T07:49:57.450Z,20.40
2019-02-27T07:50:58.207Z,21.40
2019-02-27T07:51:58.065Z,21.60
2019-02-27T07:52:57.484Z,20.30
2019-02-27T07:53:57.498Z,19.90
2019-02-27T07:54:57.502Z,20.50
2019-02-27T07:55:57.523Z,20.50
2019-02-27T07:56:57.533Z,19.80
2019-02-27T07:58:57.589Z,19.60
2019-02-27T07:59:57.565Z,19.50
2019-02-27T08:00:58.611Z,19.90
2019-02-27T08:02:02.296Z,20.70
2019-02-27T08:02:57.588Z,19.40
2019-02-27T08:03:57.616Z,19.50
2019-02-27T08:04:57.611Z,19.10
2019-02-27T08:05:59.875Z,19.50
2019-02-27T08:06:57.647Z,18.40
2019-02-27T08:07:57.656Z,19.00
2019-02-27T08:08:57.831Z,17.90
2019-02-27T08:09:57.668Z,18.70
2019-02-27T08:10:57.681Z,17.70
2019-02-27T08:11:57.691Z,18.50
2019-02-27T08:12:57.720Z,18.20
2019-02-27T08:13:57.722Z,18.60
2019-02-27T08:14:57.725Z,19.20
2019-02-27T08:15:58.096Z,18.50
2019-02-27T08:16:58.188Z,17.80
2019-02-27T08:17:58.638Z,18.10
2019-02-27T08:18:57.788Z,18.30
2019-02-27T08:19:57.810Z,18.00
2019-02-27T08:20:57.798Z,17.40
2019-02-27T08:21:58.706Z,17.40
2019-02-27T08:22:58.003Z,18.00
2019-02-27T08:23:57.830Z,17.10
2019-02-27T08:24:57.949Z,18.00
2019-02-27T08:25:57.913Z,18.00
2019-02-27T08:26:57.873Z,17.20
2019-02-27T08:27:57.887Z,17.70
2019-02-27T08:28:57.912Z,17.10
2019-02-27T08:29:59.758Z,17.10
2019-02-27T08:30:57.917Z,17.00
2019-02-27T08:32:00.704Z,17.20
2019-02-27T08:32:57.964Z,16.80
2019-02-27T08:33:58.046Z,16.40
2019-02-27T08:34:57.952Z,16.20
2019-02-27T08:35:57.965Z,16.10
2019-02-27T08:36:57.997Z,16.30
2019-02-27T08:38:02.577Z,17.00
2019-02-27T08:38:58.003Z,16.70
2019-02-27T08:39:58.014Z,16.10
2019-02-27T08:40:58.552Z,16.30
2019-02-27T08:41:58.066Z,15.60
2019-02-27T08:43:58.060Z,16.20
2019-02-27T08:44:58.074Z,15.70
2019-02-27T08:46:02.151Z,15.20
2019-02-27T08:46:58.098Z,17.10
2019-02-27T08:47:58.120Z,16.90
2019-02-27T08:48:58.380Z,16.40
2019-02-27T08:49:58.649Z,17.40
2019-02-27T08:50:58.147Z,16.70
2019-02-27T08:51:58.158Z,16.90
2019-02-27T08:52:58.176Z,16.80
2019-02-27T08:53:59.250Z,17.10
2019-02-27T08:54:58.192Z,17.10
2019-02-27T08:55:58.214Z,16.30
2019-02-27T08:56:58.236Z,16.20
2019-02-27T08:57:58.241Z,16.70
2019-02-27T08:58:58.242Z,16.80
2019-02-27T08:59:58.249Z,15.90
2019-02-27T09:00:58.260Z,16.40
2019-02-27T09:01:58.277Z,16.00
2019-02-27T09:03:02.419Z,16.40
2019-02-27T09:03:59.288Z,16.20
2019-02-27T09:04:58.334Z,15.80
2019-02-27T09:05:58.328Z,16.20
2019-02-27T09:07:02.318Z,15.50
2019-02-27T09:07:58.351Z,16.20
2019-02-27T09:08:58.359Z,16.70
2019-02-27T09:09:58.395Z,16.20
2019-02-27T09:10:58.380Z,16.70
2019-02-27T09:11:58.394Z,16.00
2019-02-27T09:13:05.397Z,16.60
2019-02-27T09:13:58.416Z,16.70
2019-02-27T09:14:58.435Z,16.20
2019-02-27T09:15:58.443Z,16.10
2019-02-27T09:16:58.457Z,16.70
2019-02-27T09:17:59.188Z,16.20
2019-02-27T09:18:58.483Z,16.00
2019-02-27T09:19:58.524Z,15.20
2019-02-27T09:20:58.509Z,14.50
2019-02-27T09:21:59.934Z,15.40
2019-02-27T09:22:58.531Z,15.70
2019-02-27T09:23:58.558Z,16.30
2019-02-27T09:24:58.566Z,15.10
2019-02-27T09:26:02.436Z,15.40
2019-02-27T09:26:58.581Z,14.80
2019-02-27T09:27:58.591Z,14.80
2019-02-27T09:28:58.612Z,15.70
2019-02-27T09:29:58.639Z,15.10
2019-02-27T09:31:03.172Z,14.70
2019-02-27T09:31:58.643Z,15.60
2019-02-27T09:32:58.656Z,15.10
2019-02-27T09:33:58.668Z,14.70
2019-02-27T09:34:59.622Z,14.50
2019-02-27T09:35:58.693Z,14.50
2019-02-27T09:36:58.707Z,15.10
2019-02-27T09:37:58.884Z,14.10
2019-02-27T09:38:58.801Z,14.30
2019-02-27T09:39:58.739Z,14.10
2019-02-27T09:40:58.759Z,13.70
2019-02-27T09:41:58.769Z,14.60
2019-02-27T09:42:58.785Z,14.20
2019-02-27T09:44:01.381Z,14.00
2019-02-27T09:44:59.752Z,13.70
2019-02-27T09:45:58.975Z,14.50
2019-02-27T09:46:58.855Z,13.90
2019-02-27T09:47:59.927Z,13.60
2019-02-27T09:48:58.852Z,14.00
2019-02-27T09:49:58.949Z,14.10
2019-02-27T09:50:58.883Z,14.10
2019-02-27T09:51:58.888Z,14.50
2019-02-27T09:53:01.130Z,14.20
2019-02-27T09:53:58.925Z,14.70
2019-02-27T09:54:59.028Z,14.20
2019-02-27T09:55:58.944Z,14.10
2019-02-27T09:57:02.055Z,13.40
2019-02-27T09:57:58.983Z,14.20
2019-02-27T09:58:58.997Z,12.90
2019-02-27T09:59:59.048Z,13.20
2019-02-27T10:01:00.270Z,13.90
2019-02-27T10:01:59.038Z,13.00
2019-02-27T10:02:59.039Z,12.70
2019-02-27T10:03:59.045Z,12.80
2019-02-27T10:05:03.096Z,13.80
2019-02-27T10:05:59.069Z,13.00
2019-02-27T10:06:59.089Z,13.00
2019-02-27T10:07:59.103Z,13.90
2019-02-27T10:08:59.748Z,13.80
2019-02-27T10:09:59.130Z,13.60
2019-02-27T10:10:59.249Z,13.60
2019-02-27T10:11:59.172Z,12.90
2019-02-27T10:12:59.926Z,13.50
2019-02-27T10:13:59.189Z,13.20
2019-02-27T10:14:59.221Z,13.50
2019-02-27T10:16:01.321Z,13.90
2019-02-27T10:16:59.226Z,12.60
2019-02-27T10:17:59.259Z,12.70
2019-02-27T10:18:59.463Z,13.20
2019-02-27T10:20:02.526Z,13.20
2019-02-27T10:20:59.748Z,12.70
2019-02-27T10:21:59.281Z,12.60
2019-02-27T10:22:59.301Z,12.70
2019-02-27T10:23:59.310Z,12.10
2019-02-27T10:24:59.324Z,12.10
2019-02-27T10:25:59.348Z,12.80
2019-02-27T10:26:59.347Z,12.20
2019-02-27T10:28:03.261Z,12.80
2019-02-27T10:28:59.375Z,12.00
2019-02-27T10:30:59.410Z,11.80
2019-02-27T10:32:00.719Z,12.10
2019-02-27T10:32:59.446Z,11.60
2019-02-27T10:34:00.436Z,11.90
2019-02-27T10:34:59.458Z,11.80
2019-02-27T10:36:03.028Z,11.20
2019-02-27T10:36:59.522Z,11.60
2019-02-27T10:37:59.503Z,12.00
2019-02-27T10:39:02.078Z,10.70
2019-02-27T10:40:00.527Z,11.10
2019-02-27T10:40:59.540Z,10.30
2019-02-27T10:41:59.560Z,9.90
2019-02-27T10:42:59.595Z,10.60
2019-02-27T10:43:59.670Z,10.50
2019-02-27T10:44:59.592Z,10.30
2019-02-27T10:46:00.259Z,10.40
2019-02-27T10:47:00.647Z,10.60
2019-02-27T10:47:59.648Z,9.30
2019-02-27T10:48:59.643Z,9.50
2019-02-27T10:50:02.139Z,9.60
2019-02-27T10:51:00.223Z,9.10
2019-02-27T10:51:59.706Z,8.00
2019-02-27T10:52:59.704Z,7.70
2019-02-27T10:54:03.007Z,7.90
2019-02-27T10:54:59.727Z,7.70
2019-02-27T10:55:59.748Z,7.20
2019-02-27T10:56:59.755Z,7.90
2019-02-27T10:57:59.782Z,8.20
2019-02-27T10:58:59.786Z,8.30
2019-02-27T10:59:59.826Z,8.20
2019-02-27T11:01:01.227Z,8.10
2019-02-27T11:01:59.999Z,8.10
2019-02-27T11:02:59.846Z,8.00
2019-02-27T11:04:00.494Z,8.00
2019-02-27T11:04:59.866Z,7.70
2019-02-27T11:05:59.881Z,8.30
2019-02-27T11:06:59.897Z,8.10
2019-02-27T11:07:59.915Z,8.20
2019-02-27T11:09:04.395Z,8.60
2019-02-27T11:09:59.941Z,8.90
2019-02-27T11:11:00.123Z,9.10
2019-02-27T11:11:59.979Z,9.30
2019-02-27T11:12:59.989Z,8.60
2019-02-27T11:13:59.997Z,8.40
2019-02-27T11:15:01.696Z,8.10
2019-02-27T11:16:00.020Z,8.30
2019-02-27T11:17:02.564Z,8.50
2019-02-27T11:18:04.451Z,8.40
2019-02-27T11:20:00.195Z,7.40
2019-02-27T11:21:02.200Z,8.40
2019-02-27T11:22:00.272Z,8.90
2019-02-27T11:23:00.133Z,8.10
2019-02-27T11:24:00.133Z,8.40
2019-02-27T11:25:00.229Z,8.30
2019-02-27T11:26:00.174Z,8.90
2019-02-27T11:27:00.195Z,8.60
2019-02-27T11:28:00.486Z,8.60
2019-02-27T11:29:00.211Z,8.80
2019-02-27T11:30:02.893Z,8.50
2019-02-27T11:31:00.540Z,8.60
2019-02-27T11:32:00.246Z,9.10
2019-02-27T11:33:00.278Z,8.70
2019-02-27T11:34:01.144Z,8.70
2019-02-27T11:35:00.348Z,8.40
2019-02-27T11:36:00.327Z,9.00
2019-02-27T11:37:00.317Z,9.20
2019-02-27T11:38:00.329Z,8.70
2019-02-27T11:39:00.339Z,8.70
2019-02-27T11:40:00.437Z,8.60
2019-02-27T11:41:00.421Z,8.50
2019-02-27T11:42:00.606Z,8.80
2019-02-27T11:43:01.076Z,8.00
2019-02-27T11:44:00.424Z,8.60
2019-02-27T11:45:00.638Z,8.00
2019-02-27T11:46:00.442Z,9.10
2019-02-27T11:47:00.464Z,9.40
2019-02-27T11:48:01.364Z,9.30
2019-02-27T11:49:03.056Z,8.50
2019-02-27T11:50:00.502Z,8.70
2019-02-27T11:51:00.806Z,8.20
2019-02-27T11:52:00.527Z,9.00
2019-02-27T11:53:03.124Z,8.90
2019-02-27T11:54:00.587Z,8.70
2019-02-27T11:55:01.587Z,8.60
2019-02-27T11:56:00.606Z,9.10
2019-02-27T11:57:00.611Z,9.10
2019-02-27T11:58:04.575Z,8.70
2019-02-27T11:59:00.629Z,8.70
2019-02-27T12:00:00.639Z,8.70
2019-02-27T12:01:01.181Z,9.30
2019-02-27T12:02:00.680Z,9.00
2019-02-27T12:03:00.683Z,9.30
2019-02-27T12:04:01.278Z,8.90
2019-02-27T12:05:00.818Z,9.40
2019-02-27T12:06:00.736Z,8.80
2019-02-27T12:07:00.738Z,8.90
2019-02-27T12:08:00.757Z,9.00
2019-02-27T12:09:00.798Z,8.70
2019-02-27T12:10:00.801Z,10.00
2019-02-27T12:11:01.102Z,8.90
2019-02-27T12:12:00.830Z,8.70
2019-02-27T12:13:01.331Z,8.70
2019-02-27T12:14:00.894Z,8.80
2019-02-27T12:15:00.858Z,8.70
2019-02-27T12:16:01.387Z,8.90
2019-02-27T12:17:00.890Z,9.20
2019-02-27T12:18:01.700Z,8.90
2019-02-27T12:19:00.940Z,9.40
2019-02-27T12:20:00.930Z,8.90
2019-02-27T12:21:00.954Z,8.80
2019-02-27T12:22:00.956Z,8.80
2019-02-27T12:23:01.005Z,9.50
2019-02-27T12:24:01.046Z,9.40
2019-02-27T12:25:01.004Z,9.60
2019-02-27T12:26:02.447Z,9.00
2019-02-27T12:27:01.028Z,9.40
2019-02-27T12:28:01.045Z,8.30
2019-02-27T12:29:01.076Z,9.20
2019-02-27T12:30:03.092Z,9.90
2019-02-27T12:31:01.090Z,9.20
2019-02-27T12:32:01.104Z,8.90
2019-02-27T12:33:01.119Z,9.30
2019-02-27T12:34:03.265Z,9.50
2019-02-27T12:35:03.098Z,8.60
2019-02-27T12:36:01.161Z,9.40
2019-02-27T12:37:01.195Z,10.10
2019-02-27T12:38:01.192Z,9.70
2019-02-27T12:39:01.203Z,9.70
2019-02-27T12:40:01.226Z,9.20
2019-02-27T12:41:01.235Z,8.90
2019-02-27T12:42:01.268Z,9.50
2019-02-27T12:43:01.406Z,9.50
2019-02-27T12:44:01.277Z,9.70
2019-02-27T12:45:01.314Z,9.90
2019-02-27T12:46:01.709Z,9.90
2019-02-27T12:47:01.324Z,9.60
2019-02-27T12:48:01.348Z,9.40
2019-02-27T12:49:01.346Z,9.30
2019-02-27T12:50:01.379Z,9.70
2019-02-27T12:51:03.670Z,10.10
2019-02-27T12:52:01.390Z,10.10
2019-02-27T12:53:01.408Z,9.90
2019-02-27T12:54:01.418Z,9.60
2019-02-27T12:55:01.905Z,9.80
2019-02-27T12:56:01.450Z,9.60
2019-02-27T12:57:01.511Z,10.40
2019-02-27T12:58:01.553Z,9.60
2019-02-27T12:59:01.548Z,9.90
2019-02-27T13:00:01.517Z,10.10
2019-02-27T13:01:01.530Z,9.60
2019-02-27T13:02:08.080Z,9.50
2019-02-27T13:03:01.558Z,9.30